KNZY/NZY METAR and TAF weather

Enter ICAO airport designator
Station Type Date Time Source
KNZY METAR 2022/06/28 12:52 UTC NOAA

KNZY 281252Z 32005KT 5SM BR FEW008 FEW100 19/18 A2998 RMK AO2 SLP152 T01890183


Station Type Date Time Source
KNZY Decoded METAR 2022/06/28 12:52 UTC NOAA

NAS NORTH ISLAND, SAN DIEGO, CA, United States (KNZY) 32-42N 117-13W 14M
Jun 28, 2022 - 08:52 AM EDT / 2022.06.28 1252 UTC
Wind: from the NW (320 degrees) at 6 MPH (5 KT):0
Visibility: 5 mile(s):0
Sky conditions: mostly clear
Weather: mist
Temperature: 66.0 F (18.9 C)
Dew Point: 64.9 F (18.3 C)
Relative Humidity: 96%
Pressure (altimeter): 29.98 in. Hg (1015 hPa)
ob: KNZY 281252Z 32005KT 5SM BR FEW008 FEW100 19/18 A2998 RMK AO2 SLP152 T01890183
cycle: 13

Station Type Date Time Source
KNZY TAF 2022/06/28 09:06 UTC NOAA

TAF
AMD KNZY 2809/2907 VRB06KT 9999 FEW008 SCT100 QNH2995INS
TEMPO 2810/2816 4000 BR OVC004
BECMG 2816/2817 21007KT 9999 NSW FEW008 FEW150 QNH2992INS
FM290100 VRB06KT 9999 FEW008 FEW150 QNH2991INS T18/2814Z T23/2821Z
AMD 0902 FS30170

Example: see airport list